Etusivu
METAR-TAF:

METAR-TAF

Lentoasemat :

Exeter, Englanti

Leveyspiiri: 50-44N, Pituuspiiri: 003-25W, korkeus merenpinnasta: 30 m

Tämänhetkinen sää

Tämä raportti tehtiin 3 tuntia ja 6 minuuttia sitten, kello 01.20 UTC
Tuuli 2 kn lounaasta
Lämpötila 8°C
Kosteus 93%
Ilmanpaine 1026 hPa
Näkyvyys 10 km tai enemmän
Hajanaisia pilviä 1500 ft:n korkeudessa
Hajanaisia pilviä 3500 ft:n korkeudessa

METAR: EGTE 190120Z 22002KT 9999 SCT015 SCT035 08/07 Q1026

Aika: 04:26 (04:26 UTC)

Sääennuste

Tämä raportti tehtiin 5 tuntia ja 28 minuuttia sitten, kello 22.58 UTC
Ennuste voimassa 19. päivästä klo 00 UTC - 19. päivään klo 04 UTC
Tuuli 3 kn eri suunnista
Näkyvyys 10 km tai enemmän
Muutamia pilviä 1200 ft:n korkeudessa
Hajonneita pilviä 2500 ft:n korkeudessa
Todennäköisyys 30% :
Ajoittain
19. päivästä klo 00 UTC - 19. päivään klo 04 UTC
Näkyvyys: 9000 m
Hajonneita pilviä 800 ft:n korkeudessa

TAF: EGTE 182258Z 1900/1904 VRB03KT 9999 FEW012 BKN025 PROB30 TEMPO 1900/1904 9000 BKN008

Säähavainnot ja -ennusteet yli 4000 lentoasemalta (METAR- ja TAF-raportit).

Käytössä olevat sääasemat on merkitty karttaan keltaisilla ja punaisilla pisteillä.

Aseta hiiri pisteen päälle nähdäksesi sääaseman nimen.

Klikkaa sitten nähdäksesi säähavainnot ja -ennusteet.

Kartan vaihtaminen: klikkaa mustalla rastilla varustettuja vihreitä pisteitä, niin voit zoomata sisään; viivalla varustettua vihreää pistettä, niin voit zoomata ulos tai vihreitä nuolia, niin pääset viereisille kartoille.


METAR-TAF: